createdAt,value
2016-08-07T00:00:32.047Z,63.5
2016-08-07T00:01:32.413Z,63.4
2016-08-07T00:02:32.060Z,63.4
2016-08-07T00:03:32.065Z,63.4
2016-08-07T00:04:32.070Z,63.31
2016-08-07T00:05:32.080Z,63.31
2016-08-07T00:06:32.081Z,63.4
2016-08-07T00:07:32.096Z,63.4
2016-08-07T00:08:32.094Z,63.31
2016-08-07T00:09:32.099Z,63.4
2016-08-07T00:10:32.105Z,63.4
2016-08-07T00:11:32.110Z,63.4
2016-08-07T00:12:32.125Z,63.31
2016-08-07T00:13:32.125Z,63.31
2016-08-07T00:14:32.135Z,63.31
2016-08-07T00:15:32.134Z,63.31
2016-08-07T00:16:32.141Z,63.4
2016-08-07T00:17:32.145Z,63.4
2016-08-07T00:18:32.158Z,63.31
2016-08-07T00:19:32.161Z,63.79
2016-08-07T00:20:32.161Z,63.4
2016-08-07T00:21:32.167Z,63.6
2016-08-07T00:22:32.174Z,63.4
2016-08-07T00:23:32.189Z,63.31
2016-08-07T00:24:32.185Z,63.31
2016-08-07T00:25:32.188Z,63.4
2016-08-07T00:26:32.203Z,63.31
2016-08-07T00:27:32.216Z,63.31
2016-08-07T00:28:32.212Z,63.4
2016-08-07T00:29:32.216Z,63.4
2016-08-07T00:30:32.230Z,63.4
2016-08-07T00:31:32.224Z,63.4
2016-08-07T00:32:32.228Z,63.4
2016-08-07T00:33:32.236Z,63.4
2016-08-07T00:34:32.244Z,63.31
2016-08-07T00:35:32.249Z,63.5
2016-08-07T00:36:32.254Z,63.4
2016-08-07T00:37:32.260Z,63.4
2016-08-07T00:38:32.313Z,63.31
2016-08-07T00:39:32.270Z,63.5
2016-08-07T00:40:32.277Z,63.31
2016-08-07T00:41:32.287Z,63.31
2016-08-07T00:42:32.291Z,63.4
2016-08-07T00:43:32.294Z,63.4
2016-08-07T00:44:32.298Z,63.4
2016-08-07T00:45:32.366Z,63.31
2016-08-07T00:46:32.310Z,63.4
2016-08-07T00:47:32.317Z,63.31
2016-08-07T00:48:32.323Z,63.4
2016-08-07T00:49:32.328Z,63.4
2016-08-07T00:50:32.337Z,63.31
2016-08-07T00:51:32.341Z,63.4
2016-08-07T00:52:32.345Z,63.31
2016-08-07T00:53:32.351Z,63.4
2016-08-07T00:54:32.358Z,63.4
2016-08-07T00:55:32.371Z,63.4
2016-08-07T00:56:32.369Z,63.5
2016-08-07T00:57:32.374Z,63.4
2016-08-07T00:58:32.391Z,63.4
2016-08-07T00:59:32.384Z,63.4
2016-08-07T01:00:32.402Z,63.31
2016-08-07T01:01:32.397Z,63.4
2016-08-07T01:02:32.443Z,63.4
2016-08-07T01:03:32.410Z,63.4
2016-08-07T01:04:32.439Z,63.31
2016-08-07T01:05:32.430Z,63.4
2016-08-07T01:06:32.498Z,63.79
2016-08-07T01:07:32.431Z,63.4
2016-08-07T01:08:32.437Z,63.31
2016-08-07T01:09:32.443Z,63.4
2016-08-07T01:10:32.452Z,63.31
2016-08-07T01:11:32.536Z,63.4
2016-08-07T01:12:32.460Z,63.4
2016-08-07T01:13:32.473Z,63.4
2016-08-07T01:14:32.482Z,63.4
2016-08-07T01:15:32.539Z,63.4
2016-08-07T01:16:32.629Z,63.4
2016-08-07T01:17:32.490Z,63.4
2016-08-07T01:18:32.497Z,63.69
2016-08-07T01:19:32.497Z,63.4
2016-08-07T01:20:32.505Z,63.31
2016-08-07T01:21:32.517Z,63.4
2016-08-07T01:22:32.517Z,63.4
2016-08-07T01:23:32.524Z,63.4
2016-08-07T01:24:32.542Z,63.31
2016-08-07T01:25:32.548Z,63.31
2016-08-07T01:26:32.540Z,63.4
2016-08-07T01:27:32.549Z,63.31
2016-08-07T01:28:32.552Z,63.31
2016-08-07T01:29:32.558Z,63.31
2016-08-07T01:30:33.449Z,63.31
2016-08-07T01:31:32.570Z,63.69
2016-08-07T01:32:32.575Z,63.4
2016-08-07T01:33:32.583Z,63.31
2016-08-07T01:34:32.594Z,63.4
2016-08-07T01:35:32.602Z,63.4
2016-08-07T01:36:33.514Z,63.31
2016-08-07T01:37:32.606Z,63.4
2016-08-07T01:38:32.611Z,63.4
2016-08-07T01:39:32.635Z,63.31
2016-08-07T01:40:32.626Z,63.31
2016-08-07T01:41:32.628Z,63.31
2016-08-07T01:42:32.633Z,63.31
2016-08-07T01:43:32.642Z,63.69
2016-08-07T01:44:32.644Z,63.4
2016-08-07T01:45:32.652Z,63.4
2016-08-07T01:46:32.658Z,63.31
2016-08-07T01:47:32.666Z,63.4
2016-08-07T01:48:32.668Z,63.4
2016-08-07T01:49:32.673Z,63.4
2016-08-07T01:50:32.682Z,63.4
2016-08-07T01:51:32.693Z,63.4
2016-08-07T01:52:32.691Z,63.6
2016-08-07T01:53:32.698Z,63.5
2016-08-07T01:54:32.706Z,63.31
2016-08-07T01:55:32.719Z,63.31
2016-08-07T01:56:32.714Z,63.5
2016-08-07T01:57:32.727Z,63.6
2016-08-07T01:58:32.728Z,63.4
2016-08-07T01:59:32.732Z,63.4
2016-08-07T02:00:32.742Z,63.31
2016-08-07T02:01:32.749Z,63.4
2016-08-07T02:02:32.750Z,63.31
2016-08-07T02:03:32.755Z,63.4
2016-08-07T02:04:32.768Z,63.4
2016-08-07T02:05:33.596Z,63.4
2016-08-07T02:06:32.781Z,63.31
2016-08-07T02:07:32.778Z,63.31
2016-08-07T02:08:32.839Z,63.4
2016-08-07T02:09:32.792Z,63.4
2016-08-07T02:10:33.271Z,63.4
2016-08-07T02:11:32.800Z,63.4
2016-08-07T02:12:32.803Z,63.31
2016-08-07T02:13:32.812Z,63.4
2016-08-07T02:14:32.824Z,63.31
2016-08-07T02:15:32.826Z,63.4
2016-08-07T02:16:32.829Z,63.4
2016-08-07T02:17:32.835Z,63.4
2016-08-07T02:18:32.838Z,63.4
2016-08-07T02:19:32.845Z,63.4
2016-08-07T02:20:32.855Z,63.31
2016-08-07T02:21:32.857Z,63.79
2016-08-07T02:22:32.884Z,63.6
2016-08-07T02:23:32.870Z,63.31
2016-08-07T02:24:32.878Z,63.4
2016-08-07T02:25:32.923Z,63.21
2016-08-07T02:26:32.885Z,63.4
2016-08-07T02:27:32.894Z,63.4
2016-08-07T02:28:32.897Z,63.31
2016-08-07T02:29:32.921Z,63.89
2016-08-07T02:30:32.952Z,63.4
2016-08-07T02:31:32.917Z,63.4
2016-08-07T02:32:32.920Z,63.4
2016-08-07T02:33:32.926Z,63.4
2016-08-07T02:34:32.930Z,63.4
2016-08-07T02:35:33.660Z,63.5
2016-08-07T02:36:32.960Z,63.4
2016-08-07T02:37:32.950Z,63.31
2016-08-07T02:38:32.955Z,63.5
2016-08-07T02:39:32.959Z,63.5
2016-08-07T02:40:32.972Z,63.4
2016-08-07T02:41:32.981Z,63.21
2016-08-07T02:42:32.977Z,63.4
2016-08-07T02:43:32.988Z,63.4
2016-08-07T02:44:33.009Z,63.4
2016-08-07T02:45:33.010Z,63.31
2016-08-07T02:46:32.999Z,63.4
2016-08-07T02:47:33.005Z,63.31
2016-08-07T02:48:33.018Z,63.4
2016-08-07T02:49:33.033Z,63.31
2016-08-07T02:50:33.023Z,63.31
2016-08-07T02:51:34.247Z,63.31
2016-08-07T02:52:33.040Z,63.31
2016-08-07T02:53:33.044Z,63.4
2016-08-07T02:54:33.242Z,63.31
2016-08-07T02:55:33.055Z,63.31
2016-08-07T02:56:33.056Z,63.4
2016-08-07T02:57:33.071Z,63.4
2016-08-07T02:58:33.085Z,63.5
2016-08-07T02:59:33.085Z,63.5
2016-08-07T03:00:33.084Z,63.4
2016-08-07T03:01:33.084Z,63.31
2016-08-07T03:02:33.091Z,63.4
2016-08-07T03:03:34.832Z,63.4
2016-08-07T03:04:33.104Z,63.4
2016-08-07T03:05:33.109Z,63.31
2016-08-07T03:06:34.339Z,63.31
2016-08-07T03:07:33.121Z,63.4
2016-08-07T03:08:33.125Z,63.4
2016-08-07T03:09:33.131Z,63.31
2016-08-07T03:10:33.138Z,63.4
2016-08-07T03:11:33.147Z,63.31
2016-08-07T03:12:33.153Z,63.4
2016-08-07T03:13:33.156Z,63.6
2016-08-07T03:14:33.160Z,63.4
2016-08-07T03:15:33.169Z,63.4
2016-08-07T03:16:33.178Z,63.4
2016-08-07T03:17:33.182Z,63.4
2016-08-07T03:18:33.183Z,63.4
2016-08-07T03:19:33.201Z,63.4
2016-08-07T03:20:33.196Z,63.4
2016-08-07T03:21:34.418Z,63.4
2016-08-07T03:22:33.206Z,63.31
2016-08-07T03:23:33.213Z,63.4
2016-08-07T03:24:33.217Z,63.31
2016-08-07T03:25:33.230Z,63.4
2016-08-07T03:26:33.228Z,63.79
2016-08-07T03:27:33.238Z,63.4
2016-08-07T03:28:33.241Z,63.31
2016-08-07T03:29:33.247Z,63.4
2016-08-07T03:30:33.251Z,63.4
2016-08-07T03:31:33.275Z,63.4
2016-08-07T03:32:33.263Z,63.4
2016-08-07T03:33:33.272Z,63.69
2016-08-07T03:34:33.272Z,63.4
2016-08-07T03:35:33.278Z,63.4
2016-08-07T03:37:33.321Z,63.31
2016-08-07T03:38:33.294Z,63.31
2016-08-07T03:39:33.304Z,63.4
2016-08-07T03:40:33.310Z,63.4
2016-08-07T03:41:33.319Z,63.4
2016-08-07T03:42:33.451Z,63.4
2016-08-07T03:43:33.328Z,63.4
2016-08-07T03:44:33.330Z,63.31
2016-08-07T03:45:33.336Z,63.31
2016-08-07T03:46:33.348Z,63.4
2016-08-07T03:47:33.354Z,63.4
2016-08-07T03:48:33.351Z,63.69
2016-08-07T03:49:33.360Z,63.4
2016-08-07T03:50:33.364Z,63.4
2016-08-07T03:52:33.378Z,63.4
2016-08-07T03:53:33.389Z,63.4
2016-08-07T03:54:33.388Z,63.89
2016-08-07T03:55:33.394Z,63.4
2016-08-07T03:56:33.398Z,63.31
2016-08-07T03:57:33.404Z,63.31
2016-08-07T03:58:33.409Z,63.4
2016-08-07T03:59:33.430Z,63.5
2016-08-07T04:00:33.426Z,63.31
2016-08-07T04:01:33.427Z,63.79
2016-08-07T04:02:33.436Z,63.5
2016-08-07T04:03:33.439Z,63.4
2016-08-07T04:04:33.443Z,63.31
2016-08-07T04:05:33.450Z,63.5
2016-08-07T04:06:33.458Z,63.4
2016-08-07T04:07:33.467Z,63.4
2016-08-07T04:08:33.467Z,63.31
2016-08-07T04:09:33.476Z,63.31
2016-08-07T04:10:33.478Z,63.4
2016-08-07T04:11:33.502Z,63.31
2016-08-07T04:12:33.488Z,63.5
2016-08-07T04:13:33.497Z,63.5
2016-08-07T04:14:33.499Z,63.5
2016-08-07T04:15:33.512Z,63.4
2016-08-07T04:16:33.528Z,63.4
2016-08-07T04:17:33.517Z,63.4
2016-08-07T04:18:33.649Z,63.4
2016-08-07T04:19:33.527Z,63.5
2016-08-07T04:20:33.536Z,63.5
2016-08-07T04:21:33.540Z,63.4
2016-08-07T04:22:33.550Z,63.4
2016-08-07T04:23:33.556Z,63.6
2016-08-07T04:24:33.727Z,63.6
2016-08-07T04:25:33.561Z,63.4
2016-08-07T04:26:34.287Z,63.5
2016-08-07T04:27:33.579Z,63.5
2016-08-07T04:28:33.583Z,63.4
2016-08-07T04:29:33.590Z,63.5
2016-08-07T04:30:33.595Z,63.5
2016-08-07T04:31:33.596Z,63.4
2016-08-07T04:32:33.606Z,63.5
2016-08-07T04:33:33.613Z,63.5
2016-08-07T04:34:33.616Z,63.5
2016-08-07T04:35:33.824Z,63.5
2016-08-07T04:36:33.906Z,63.4
2016-08-07T04:37:33.644Z,63.5
2016-08-07T04:38:33.636Z,63.5
2016-08-07T04:39:33.642Z,63.4
2016-08-07T04:40:33.646Z,63.5
2016-08-07T04:41:33.653Z,63.5
2016-08-07T04:42:33.670Z,63.5
2016-08-07T04:43:33.671Z,63.5
2016-08-07T04:44:33.669Z,63.6
2016-08-07T04:45:33.678Z,63.5
2016-08-07T04:46:33.687Z,63.5
2016-08-07T04:47:33.687Z,63.5
2016-08-07T04:48:35.619Z,63.5
2016-08-07T04:49:33.702Z,63.4
2016-08-07T04:50:33.704Z,63.6
2016-08-07T04:51:33.727Z,63.79
2016-08-07T04:52:33.718Z,63.6
2016-08-07T04:53:33.721Z,63.5
2016-08-07T04:54:33.728Z,63.6
2016-08-07T04:55:33.734Z,63.4
2016-08-07T04:56:33.744Z,63.4
2016-08-07T04:57:33.896Z,63.5
2016-08-07T04:58:33.754Z,63.5
2016-08-07T04:59:33.755Z,63.5
2016-08-07T05:00:33.762Z,63.4
2016-08-07T05:01:33.769Z,63.6
2016-08-07T05:02:33.784Z,63.4
2016-08-07T05:03:33.777Z,63.11
2016-08-07T05:04:33.790Z,63.6
2016-08-07T05:05:33.792Z,63.69
2016-08-07T05:06:33.794Z,63.6
2016-08-07T05:07:33.801Z,63.11
2016-08-07T05:08:33.809Z,63.31
2016-08-07T05:09:33.814Z,63.6
2016-08-07T05:10:33.816Z,63.5
2016-08-07T05:11:33.825Z,63.6
2016-08-07T05:12:33.833Z,63.6
2016-08-07T05:13:33.835Z,63.21
2016-08-07T05:14:33.842Z,63.5
2016-08-07T05:15:33.867Z,63.5
2016-08-07T05:16:33.910Z,63.21
2016-08-07T05:17:34.011Z,63.11
2016-08-07T05:18:33.871Z,63.21
2016-08-07T05:19:33.994Z,62.92
2016-08-07T05:20:33.874Z,63.11
2016-08-07T05:21:33.887Z,63.02
2016-08-07T05:22:33.891Z,62.82
2016-08-07T05:23:33.891Z,63.02
2016-08-07T05:24:33.898Z,63.11
2016-08-07T05:25:33.916Z,63.02
2016-08-07T05:26:33.909Z,62.92
2016-08-07T05:27:33.917Z,63.02
2016-08-07T05:28:33.922Z,62.82
2016-08-07T05:29:33.926Z,63.98
2016-08-07T05:30:33.931Z,62.92
2016-08-07T05:31:33.937Z,63.11
2016-08-07T05:32:33.957Z,63.11
2016-08-07T05:33:33.949Z,63.02
2016-08-07T05:34:33.965Z,62.82
2016-08-07T05:35:33.975Z,63.69
2016-08-07T05:36:33.967Z,63.11
2016-08-07T05:37:33.972Z,62.92
2016-08-07T05:38:33.982Z,62.92
2016-08-07T05:39:34.043Z,63.02
2016-08-07T05:40:33.988Z,62.92
2016-08-07T05:41:33.995Z,62.92
2016-08-07T05:42:34.003Z,62.92
2016-08-07T05:43:34.008Z,62.92
2016-08-07T05:44:34.024Z,62.92
2016-08-07T05:45:34.024Z,63.31
2016-08-07T05:46:34.023Z,63.11
2016-08-07T05:47:34.029Z,63.02
2016-08-07T05:48:34.036Z,63.02
2016-08-07T05:49:34.043Z,63.11
2016-08-07T05:50:34.047Z,63.6
2016-08-07T05:51:34.052Z,62.92
2016-08-07T05:52:34.058Z,63.02
2016-08-07T05:53:34.069Z,62.92
2016-08-07T05:54:34.070Z,63.5
2016-08-07T05:55:34.075Z,63.02
2016-08-07T05:56:34.083Z,63.11
2016-08-07T05:57:34.085Z,63.21
2016-08-07T05:58:34.100Z,63.11
2016-08-07T05:59:34.098Z,62.92
2016-08-07T06:00:34.108Z,63.02
2016-08-07T06:01:34.119Z,63.11
2016-08-07T06:02:34.115Z,63.11
2016-08-07T06:03:34.118Z,63.11
2016-08-07T06:04:34.134Z,63.11
2016-08-07T06:05:34.196Z,63.11
2016-08-07T06:06:34.135Z,63.02
2016-08-07T06:07:34.144Z,63.11
2016-08-07T06:08:34.158Z,62.92
2016-08-07T06:09:34.154Z,63.11
2016-08-07T06:10:34.161Z,63.02
2016-08-07T06:11:34.172Z,62.82
2016-08-07T06:12:36.337Z,63.11
2016-08-07T06:13:34.177Z,63.02
2016-08-07T06:14:34.184Z,62.92
2016-08-07T06:15:34.189Z,63.11
2016-08-07T06:16:34.200Z,62.92
2016-08-07T06:17:34.201Z,62.92
2016-08-07T06:18:34.209Z,62.92
2016-08-07T06:19:34.213Z,62.92
2016-08-07T06:20:34.233Z,62.92
2016-08-07T06:21:34.228Z,62.92
2016-08-07T06:22:34.231Z,63.02
2016-08-07T06:23:34.242Z,62.82
2016-08-07T06:24:34.244Z,62.82
2016-08-07T06:25:34.934Z,62.92
2016-08-07T06:26:34.255Z,62.92
2016-08-07T06:27:34.261Z,63.02
2016-08-07T06:28:34.264Z,62.92
2016-08-07T06:29:34.270Z,62.92
2016-08-07T06:30:34.279Z,62.92
2016-08-07T06:31:34.289Z,62.82
2016-08-07T06:32:34.293Z,63.02
2016-08-07T06:33:34.303Z,62.82
2016-08-07T06:34:37.227Z,62.82
2016-08-07T06:35:34.325Z,63.02
2016-08-07T06:36:34.311Z,62.82
2016-08-07T06:37:34.317Z,62.95
2016-08-07T06:38:34.326Z,62.92
2016-08-07T06:39:34.329Z,62.92
2016-08-07T06:40:34.338Z,62.92
2016-08-07T06:41:34.339Z,62.82
2016-08-07T06:42:34.345Z,62.92
2016-08-07T06:43:34.372Z,63.02
2016-08-07T06:44:34.370Z,62.92
2016-08-07T06:45:34.364Z,62.92
2016-08-07T06:46:34.612Z,62.92
2016-08-07T06:47:34.404Z,62.92
2016-08-07T06:48:34.472Z,63.02
2016-08-07T06:49:35.124Z,63.02
2016-08-07T06:50:34.389Z,62.92
2016-08-07T06:51:34.399Z,63.02
2016-08-07T06:52:35.868Z,63.02
2016-08-07T06:53:34.406Z,62.82
2016-08-07T06:54:34.414Z,62.82
2016-08-07T06:55:34.420Z,62.92
2016-08-07T06:56:34.425Z,62.92
2016-08-07T06:57:34.432Z,62.92
2016-08-07T06:58:34.447Z,62.92
2016-08-07T06:59:34.441Z,62.92
2016-08-07T07:00:35.175Z,62.73
2016-08-07T07:01:34.463Z,62.82
2016-08-07T07:02:34.468Z,62.92
2016-08-07T07:03:34.478Z,62.82
2016-08-07T07:04:34.472Z,62.92
2016-08-07T07:05:34.478Z,62.92
2016-08-07T07:06:34.486Z,62.92
2016-08-07T07:07:35.705Z,62.92
2016-08-07T07:08:34.500Z,62.82
2016-08-07T07:09:34.548Z,62.92
2016-08-07T07:10:34.503Z,62.82
2016-08-07T07:11:34.511Z,62.82
2016-08-07T07:12:34.526Z,62.92
2016-08-07T07:13:34.521Z,62.92
2016-08-07T07:14:34.548Z,62.92
2016-08-07T07:15:34.536Z,62.82
2016-08-07T07:16:34.537Z,62.92
2016-08-07T07:17:34.567Z,62.82
2016-08-07T07:18:34.553Z,62.73
2016-08-07T07:19:34.558Z,62.82
2016-08-07T07:20:34.567Z,62.82
2016-08-07T07:21:35.305Z,62.92
2016-08-07T07:23:34.580Z,63.02
2016-08-07T07:24:34.589Z,62.92
2016-08-07T07:25:34.595Z,62.92
2016-08-07T07:26:34.605Z,62.92
2016-08-07T07:27:34.602Z,62.73
2016-08-07T07:28:34.613Z,62.82
2016-08-07T07:29:36.998Z,62.92
2016-08-07T07:30:34.619Z,62.82
2016-08-07T07:31:34.664Z,62.73
2016-08-07T07:32:34.845Z,63.02
2016-08-07T07:33:35.383Z,63.02
2016-08-07T07:34:34.644Z,62.73
2016-08-07T07:35:34.649Z,62.82
2016-08-07T07:36:34.651Z,62.73
2016-08-07T07:38:34.668Z,63.21
2016-08-07T07:39:34.722Z,62.82
2016-08-07T07:40:34.677Z,62.73
2016-08-07T07:41:34.682Z,63.11
2016-08-07T07:42:34.688Z,63.11
2016-08-07T07:43:34.707Z,63.02
2016-08-07T07:44:34.700Z,63.11
2016-08-07T07:45:34.708Z,62.92
2016-08-07T07:46:34.709Z,63.02
2016-08-07T07:47:34.716Z,63.02
2016-08-07T08:02:01.838Z,63.02
2016-08-07T08:03:01.840Z,62.92
2016-08-07T08:04:01.849Z,62.92
2016-08-07T08:05:01.848Z,62.92
2016-08-07T08:06:01.888Z,62.92
2016-08-07T08:07:01.862Z,62.85
2016-08-07T08:08:01.871Z,62.92
2016-08-07T08:09:01.872Z,62.92
2016-08-07T08:10:02.614Z,62.82
2016-08-07T08:11:01.896Z,62.82
2016-08-07T08:12:01.894Z,62.73
2016-08-07T08:13:01.900Z,62.92
2016-08-07T08:14:01.902Z,62.82
2016-08-07T08:15:01.908Z,62.92
2016-08-07T08:16:01.914Z,63.02
2016-08-07T08:17:01.919Z,62.95
2016-08-07T08:18:01.924Z,62.92
2016-08-07T08:19:01.930Z,62.92
2016-08-07T08:20:01.937Z,62.92
2016-08-07T08:21:01.951Z,62.82
2016-08-07T08:22:01.948Z,62.82
2016-08-07T08:23:01.951Z,63.11
2016-08-07T08:24:01.964Z,62.92
2016-08-07T08:25:01.970Z,63.02
2016-08-07T08:26:01.972Z,62.85
2016-08-07T08:27:01.984Z,63.02
2016-08-07T08:28:01.982Z,62.95
2016-08-07T08:29:01.989Z,63.02
2016-08-07T08:30:02.007Z,63.02
2016-08-07T08:31:01.998Z,63.02
2016-08-07T08:32:02.005Z,62.95
2016-08-07T08:33:02.019Z,63.02
2016-08-07T08:34:02.018Z,62.92
2016-08-07T08:35:02.022Z,62.82
2016-08-07T08:36:02.027Z,63.02
2016-08-07T08:37:02.045Z,63.02
2016-08-07T08:39:02.048Z,62.92
2016-08-07T08:40:02.099Z,62.85
2016-08-07T08:41:02.060Z,62.82
2016-08-07T08:42:02.061Z,62.82
2016-08-07T08:43:02.071Z,62.95
2016-08-07T08:44:02.079Z,62.82
2016-08-07T08:45:02.080Z,62.73
2016-08-07T08:46:02.087Z,62.82
2016-08-07T08:47:02.089Z,63.34
2016-08-07T08:48:02.095Z,63.31
2016-08-07T08:49:02.107Z,63.02
2016-08-07T08:50:02.110Z,62.76
2016-08-07T08:51:02.114Z,62.82
2016-08-07T08:52:02.126Z,63.24
2016-08-07T08:54:02.131Z,62.73
2016-08-07T08:55:02.137Z,62.53
2016-08-07T08:56:02.144Z,63.21
2016-08-07T08:57:02.150Z,62.85
2016-08-07T08:58:02.152Z,62.85
2016-08-07T08:59:02.161Z,62.63
2016-08-07T09:00:02.170Z,62.85
2016-08-07T09:01:02.172Z,62.85
2016-08-07T09:02:02.179Z,62.73
2016-08-07T09:03:02.186Z,62.85
2016-08-07T09:04:02.188Z,62.37
2016-08-07T09:05:02.196Z,62.95
2016-08-07T09:06:02.204Z,62.44
2016-08-07T09:07:02.218Z,62.47
2016-08-07T09:09:02.219Z,62.66
2016-08-07T09:10:02.229Z,62.47
2016-08-07T09:11:02.229Z,62.56
2016-08-07T09:12:02.239Z,62.66
2016-08-07T09:13:02.244Z,62.56
2016-08-07T09:14:02.247Z,62.56
2016-08-07T09:15:02.255Z,62.47
2016-08-07T09:16:02.264Z,62.85
2016-08-07T09:17:02.266Z,62.66
2016-08-07T09:18:02.275Z,62.37
2016-08-07T09:19:02.280Z,62.85
2016-08-07T09:20:02.286Z,62.37
2016-08-07T09:21:02.292Z,62.37
2016-08-07T09:22:02.295Z,62.56
2016-08-07T09:23:02.304Z,62.66
2016-08-07T09:24:02.307Z,62.18
2016-08-07T09:25:02.314Z,62.18
2016-08-07T09:26:02.320Z,62.56
2016-08-07T09:27:02.322Z,62.47
2016-08-07T09:28:02.336Z,62.37
2016-08-07T09:29:02.345Z,62.37
2016-08-07T09:30:02.349Z,62.37
2016-08-07T09:31:02.347Z,62.37
2016-08-07T09:32:02.741Z,62.27
2016-08-07T09:33:02.360Z,62.37
2016-08-07T09:34:02.367Z,62.27
2016-08-07T09:35:02.374Z,62.27
2016-08-07T09:36:02.377Z,62.66
2016-08-07T09:37:02.383Z,62.27
2016-08-07T09:38:02.388Z,62.27
2016-08-07T09:39:02.395Z,62.27
2016-08-07T09:40:02.457Z,62.27
2016-08-07T09:41:02.407Z,62.27
2016-08-07T09:42:03.134Z,62.27
2016-08-07T09:43:02.418Z,62.27
2016-08-07T09:44:02.424Z,62.08
2016-08-07T09:45:02.432Z,62.47
2016-08-07T09:46:02.435Z,62.37
2016-08-07T09:47:02.443Z,62.27
2016-08-07T09:48:02.450Z,62.18
2016-08-07T09:49:02.452Z,62.08
2016-08-07T09:50:02.461Z,62.37
2016-08-07T09:51:02.470Z,62.08
2016-08-07T09:52:02.469Z,62.37
2016-08-07T09:53:02.487Z,61.98
2016-08-07T09:54:02.482Z,62.27
2016-08-07T09:55:03.208Z,62.85
2016-08-07T09:56:02.496Z,62.18
2016-08-07T09:57:02.500Z,62.08
2016-08-07T09:58:02.509Z,62.37
2016-08-07T09:59:02.519Z,62.95
2016-08-07T10:00:02.520Z,62.37
2016-08-07T10:01:02.544Z,62.27
2016-08-07T10:02:02.531Z,62.37
2016-08-07T10:03:02.537Z,62.27
2016-08-07T10:04:02.548Z,61.98
2016-08-07T10:05:02.549Z,62.08
2016-08-07T10:06:02.554Z,62.27
2016-08-07T10:07:02.561Z,62.08
2016-08-07T10:08:02.569Z,62.27
2016-08-07T10:09:02.573Z,62.08
2016-08-07T10:10:02.575Z,62.18
2016-08-07T10:11:02.586Z,61.98
2016-08-07T10:12:02.590Z,62.08
2016-08-07T10:13:02.594Z,61.98
2016-08-07T10:14:02.614Z,62.37
2016-08-07T10:15:02.605Z,62.18
2016-08-07T10:16:02.626Z,62.27
2016-08-07T10:17:02.621Z,62.27
2016-08-07T10:18:02.627Z,62.27
2016-08-07T10:19:02.630Z,62.18
2016-08-07T10:20:02.637Z,62.27
2016-08-07T10:21:02.644Z,62.27
2016-08-07T10:22:02.647Z,62.27
2016-08-07T10:23:02.658Z,62.37
2016-08-07T10:24:02.663Z,62.66
2016-08-07T10:25:02.665Z,62.27
2016-08-07T10:26:02.687Z,62.37
2016-08-07T10:27:02.677Z,62.08
2016-08-07T10:28:02.684Z,62.56
2016-08-07T10:29:02.693Z,62.37
2016-08-07T10:30:02.692Z,62.56
2016-08-07T10:31:02.702Z,62.37
2016-08-07T10:32:02.709Z,62.27
2016-08-07T10:33:02.711Z,62.37
2016-08-07T10:34:02.723Z,62.27
2016-08-07T10:35:02.724Z,62.27
2016-08-07T10:36:02.733Z,62.27
2016-08-07T10:37:02.756Z,62.37
2016-08-07T10:38:02.744Z,62.47
2016-08-07T10:39:02.748Z,62.18
2016-08-07T10:40:02.806Z,62.27
2016-08-07T10:41:02.759Z,62.37
2016-08-07T10:42:02.768Z,62.27
2016-08-07T10:43:02.774Z,62.37
2016-08-07T10:44:02.776Z,62.27
2016-08-07T10:45:02.785Z,62.27
2016-08-07T10:46:02.791Z,62.37
2016-08-07T10:47:02.795Z,62.18
2016-08-07T10:48:02.806Z,62.08
2016-08-07T10:49:02.810Z,62.27
2016-08-07T10:50:02.816Z,62.18
2016-08-07T10:51:02.820Z,62.08
2016-08-07T10:52:02.828Z,62.27
2016-08-07T10:53:02.836Z,62.08
2016-08-07T10:54:02.839Z,61.98
2016-08-07T10:55:02.844Z,62.08
2016-08-07T10:56:02.850Z,61.98
2016-08-07T10:57:02.862Z,61.98
2016-08-07T10:58:02.863Z,62.56
2016-08-07T10:59:02.868Z,62.08
2016-08-07T11:00:02.874Z,62.08
2016-08-07T11:01:02.885Z,61.89
2016-08-07T11:02:02.885Z,61.98
2016-08-07T11:03:02.890Z,61.89
2016-08-07T11:04:02.897Z,62.27
2016-08-07T11:05:02.901Z,62.08
2016-08-07T11:06:02.908Z,61.98
2016-08-07T11:07:02.914Z,62.27
2016-08-07T11:08:02.918Z,62.27
2016-08-07T11:09:02.929Z,62.18
2016-08-07T11:10:02.939Z,61.89
2016-08-07T11:11:02.941Z,61.98
2016-08-07T11:12:02.944Z,62.85
2016-08-07T11:13:02.954Z,62.56
2016-08-07T11:14:02.956Z,62.18
2016-08-07T11:15:02.961Z,61.98
2016-08-07T11:16:02.970Z,62.08
2016-08-07T11:17:02.973Z,62.18
2016-08-07T11:18:02.994Z,61.89
2016-08-07T11:19:02.987Z,62.18
2016-08-07T11:20:02.992Z,61.98
2016-08-07T11:21:02.998Z,62.85
2016-08-07T11:22:03.006Z,61.89
2016-08-07T11:23:03.011Z,61.89
2016-08-07T11:24:03.033Z,61.89
2016-08-07T11:25:03.021Z,61.89
2016-08-07T11:26:03.029Z,62.27
2016-08-07T11:27:03.033Z,62.08
2016-08-07T11:28:03.039Z,61.89
2016-08-07T11:29:03.057Z,62.37
2016-08-07T11:30:03.056Z,62.18
2016-08-07T11:31:03.057Z,62.18
2016-08-07T11:32:03.065Z,62.27
2016-08-07T11:33:03.068Z,62.08
2016-08-07T11:34:03.075Z,62.08
2016-08-07T11:35:03.079Z,62.56
2016-08-07T11:36:03.084Z,62.37
2016-08-07T11:37:03.093Z,62.08
2016-08-07T11:38:03.100Z,62.08
2016-08-07T11:39:03.111Z,62.27
2016-08-07T11:40:03.110Z,62.27
2016-08-07T11:41:03.117Z,62.47
2016-08-07T11:42:03.126Z,62.56
2016-08-07T11:43:03.125Z,61.98
2016-08-07T11:44:03.138Z,62.56
2016-08-07T11:45:03.140Z,62.27
2016-08-07T11:46:03.145Z,61.98
2016-08-07T11:47:03.150Z,62.27
2016-08-07T11:48:03.157Z,62.47
2016-08-07T11:49:03.164Z,61.79
2016-08-07T11:50:03.167Z,62.47
2016-08-07T11:51:03.174Z,62.47
2016-08-07T11:52:03.183Z,62.47
2016-08-07T11:53:03.186Z,62.18
2016-08-07T11:54:03.194Z,62.76
2016-08-07T11:55:03.202Z,62.08
2016-08-07T11:56:03.205Z,62.18
2016-08-07T11:57:03.211Z,62.37
2016-08-07T11:58:03.227Z,62.18
2016-08-07T11:59:03.222Z,62.18
2016-08-07T12:00:03.228Z,61.72
2016-08-07T12:01:03.234Z,62.01
2016-08-07T12:02:03.246Z,62.21
2016-08-07T12:03:03.251Z,62.08
2016-08-07T12:04:03.252Z,61.98
2016-08-07T12:05:03.260Z,62.95
2016-08-07T12:06:03.263Z,62.47
2016-08-07T12:07:03.271Z,61.79
2016-08-07T12:08:03.276Z,62.08
2016-08-07T12:09:03.280Z,62.27
2016-08-07T12:10:03.289Z,62.66
2016-08-07T12:11:03.296Z,62.21
2016-08-07T12:12:03.303Z,62.18
2016-08-07T12:13:03.307Z,62.37
2016-08-07T12:14:03.312Z,62.3
2016-08-07T12:15:03.318Z,62.66
2016-08-07T12:16:03.339Z,62.3
2016-08-07T12:17:03.330Z,62.18
2016-08-07T12:18:03.355Z,61.69
2016-08-07T12:19:03.344Z,62.27
2016-08-07T12:20:03.349Z,62.21
2016-08-07T12:21:03.354Z,61.89
2016-08-07T12:22:03.363Z,61.79
2016-08-07T12:23:03.366Z,61.98
2016-08-07T12:25:03.378Z,62.18
2016-08-07T12:26:03.386Z,62.18
2016-08-07T12:27:03.392Z,62.21
2016-08-07T12:28:03.396Z,62.27
2016-08-07T12:29:03.403Z,62.27
2016-08-07T12:30:03.412Z,62.18
2016-08-07T12:31:03.421Z,62.08
2016-08-07T12:32:03.420Z,62.18
2016-08-07T12:33:03.427Z,62.18
2016-08-07T12:34:03.445Z,62.18
2016-08-07T12:35:03.438Z,61.89
2016-08-07T12:36:03.451Z,62.11
2016-08-07T12:37:03.449Z,62.18
2016-08-07T12:38:03.458Z,62.27
2016-08-07T12:40:03.468Z,61.89
2016-08-07T12:41:03.473Z,62.18
2016-08-07T12:42:03.478Z,62.4
2016-08-07T12:43:03.486Z,62.18
2016-08-07T12:44:03.492Z,62.37
2016-08-07T12:45:03.502Z,62.27
2016-08-07T12:46:03.505Z,62.11
2016-08-07T12:47:03.518Z,62.18
2016-08-07T12:48:03.514Z,62.27
2016-08-07T12:49:03.523Z,62.3
2016-08-07T12:50:03.551Z,62.08
2016-08-07T12:51:03.548Z,62.4
2016-08-07T12:52:03.539Z,62.3
2016-08-07T12:53:03.543Z,62.27
2016-08-07T12:54:03.554Z,62.18
2016-08-07T12:55:03.554Z,62.21
2016-08-07T12:56:03.562Z,62.11
2016-08-07T12:57:03.571Z,62.27
2016-08-07T12:58:03.577Z,62.08
2016-08-07T12:59:03.579Z,62.4
2016-08-07T13:00:03.588Z,62.18
2016-08-07T13:01:03.596Z,62.18
2016-08-07T13:02:03.605Z,62.18
2016-08-07T13:03:03.610Z,62.21
2016-08-07T13:04:03.610Z,62.18
2016-08-07T13:05:03.618Z,62.4
2016-08-07T13:06:03.631Z,62.08
2016-08-07T13:07:03.637Z,62.3
2016-08-07T13:08:03.635Z,62.27
2016-08-07T13:09:03.640Z,62.21
2016-08-07T13:10:03.646Z,62.18
2016-08-07T13:11:03.654Z,62.21
2016-08-07T13:12:03.659Z,62.4
2016-08-07T13:13:03.665Z,62.21
2016-08-07T13:14:03.670Z,62.3
2016-08-07T13:15:03.694Z,62.5
2016-08-07T13:16:03.682Z,62.11
2016-08-07T13:17:03.688Z,62.11
2016-08-07T13:18:03.696Z,62.21
2016-08-07T13:19:03.706Z,62.21
2016-08-07T13:20:03.707Z,62.3
2016-08-07T13:21:03.714Z,62.27
2016-08-07T13:22:03.718Z,62.21
2016-08-07T13:23:03.727Z,62.4